createdAt,value
2023-03-18T00:03:58.533Z,189.07
2023-03-18T00:14:02.497Z,192.17
2023-03-18T00:24:07.967Z,193.20
2023-03-18T00:34:12.597Z,195.50
2023-03-18T00:44:19.461Z,198.43
2023-03-18T00:54:24.837Z,197.60
2023-03-18T01:04:29.867Z,190.80
2023-03-18T01:14:33.501Z,194.27
2023-03-18T01:24:39.552Z,193.77
2023-03-18T01:34:44.259Z,180.00
2023-03-18T01:44:49.998Z,189.80
2023-03-18T01:55:02.895Z,184.80
2023-03-18T02:05:12.995Z,186.50
2023-03-18T02:15:21.376Z,183.83
2023-03-18T02:25:38.492Z,189.47
2023-03-18T02:35:47.362Z,189.70
2023-03-18T02:46:13.763Z,185.20
2023-03-18T02:56:19.615Z,182.60
2023-03-18T03:06:24.043Z,187.53
2023-03-18T03:16:29.621Z,188.90
2023-03-18T03:26:35.071Z,178.70
2023-03-18T03:36:40.154Z,182.97
2023-03-18T03:46:43.648Z,184.03
2023-03-18T03:56:48.811Z,186.90
2023-03-18T04:06:52.779Z,184.63
2023-03-18T04:17:00.455Z,186.33
2023-03-18T04:27:05.828Z,181.93
2023-03-18T04:37:11.763Z,181.83
2023-03-18T04:47:16.605Z,187.17
2023-03-18T04:57:23.055Z,188.43
2023-03-18T05:07:31.915Z,189.53
2023-03-18T05:17:42.876Z,188.53
2023-03-18T05:27:47.662Z,196.17
2023-03-18T05:38:05.161Z,187.70
2023-03-18T05:48:09.317Z,193.03
2023-03-18T05:58:22.168Z,190.40
2023-03-18T06:08:31.857Z,192.83
2023-03-18T06:18:37.438Z,197.90
2023-03-18T06:28:41.204Z,194.83
2023-03-18T06:38:48.910Z,203.30
2023-03-18T06:48:54.600Z,205.27
2023-03-18T06:59:05.370Z,216.40
2023-03-18T07:09:11.185Z,216.63
2023-03-18T07:19:17.857Z,217.83
2023-03-18T07:29:22.470Z,221.23
2023-03-18T07:39:27.606Z,227.40
2023-03-18T07:49:31.920Z,230.30
2023-03-18T07:59:37.624Z,222.93
2023-03-18T08:09:41.216Z,226.67
2023-03-18T08:19:47.130Z,221.73
2023-03-18T08:29:50.897Z,224.30
2023-03-18T08:39:55.802Z,228.60
2023-03-18T08:49:59.322Z,215.47
2023-03-18T09:00:05.500Z,218.50
2023-03-18T09:10:12.899Z,212.23
2023-03-18T09:20:19.421Z,220.03
2023-03-18T09:30:23.402Z,211.93
2023-03-18T09:40:32.893Z,208.57
2023-03-18T09:50:44.259Z,221.18
2023-03-18T10:00:52.032Z,209.20
2023-03-18T10:10:55.539Z,212.25
2023-03-18T10:21:18.831Z,205.65
2023-03-18T10:31:51.333Z,206.73
2023-03-18T10:42:02.316Z,207.75
2023-03-18T10:52:13.685Z,212.73
2023-03-18T11:02:24.149Z,246.45
2023-03-18T11:12:30.033Z,199.50
2023-03-18T11:22:36.824Z,191.85
2023-03-18T11:32:54.293Z,192.70
2023-03-18T11:43:04.628Z,198.45
2023-03-18T11:53:14.969Z,182.73
2023-03-18T12:04:02.198Z,193.85
2023-03-18T12:14:12.923Z,181.27
2023-03-18T12:24:51.522Z,188.63
2023-03-18T12:35:30.268Z,184.63
2023-03-18T12:45:39.771Z,187.95
2023-03-18T12:55:48.290Z,194.93
2023-03-18T13:05:57.068Z,193.52
2023-03-18T13:16:04.751Z,195.93
2023-03-18T13:26:16.957Z,196.30
2023-03-18T13:36:51.041Z,202.20
2023-03-18T13:47:05.505Z,204.27
2023-03-18T13:57:34.596Z,191.52
2023-03-18T14:07:49.606Z,192.80
2023-03-18T14:17:58.616Z,198.88
2023-03-18T14:28:20.590Z,210.48
2023-03-18T14:38:28.106Z,216.75
2023-03-18T14:48:34.646Z,218.38
2023-03-18T14:58:38.274Z,214.80
2023-03-18T15:08:52.205Z,225.97
2023-03-18T15:18:57.248Z,220.63
2023-03-18T15:29:24.286Z,218.60
2023-03-18T15:39:36.142Z,225.03
2023-03-18T15:49:52.853Z,223.87
2023-03-18T15:59:56.441Z,224.70
2023-03-18T16:10:01.708Z,223.40
2023-03-18T16:20:17.211Z,220.60
2023-03-18T16:30:26.549Z,224.50
2023-03-18T16:40:32.841Z,209.50
2023-03-18T16:50:40.056Z,207.60
2023-03-18T17:00:46.874Z,220.60
2023-03-18T17:10:55.799Z,213.57
2023-03-18T17:20:59.508Z,216.10
2023-03-18T17:31:05.033Z,210.53
2023-03-18T17:41:17.698Z,209.13
2023-03-18T17:51:24.756Z,209.30
2023-03-18T18:01:31.122Z,216.27
2023-03-18T18:11:39.777Z,205.77
2023-03-18T18:21:44.806Z,210.17
2023-03-18T18:31:50.503Z,204.90
2023-03-18T18:41:55.559Z,211.37
2023-03-18T18:52:02.287Z,211.37
2023-03-18T19:02:32.002Z,205.90
2023-03-18T19:12:39.915Z,204.43
2023-03-18T19:22:44.794Z,214.90
2023-03-18T19:32:50.747Z,215.87
2023-03-18T19:42:55.311Z,217.57
2023-03-18T19:53:01.922Z,218.20
2023-03-18T20:03:11.972Z,218.90
2023-03-18T20:13:22.428Z,230.53
2023-03-18T20:23:30.141Z,232.10
2023-03-18T20:33:37.089Z,236.73
2023-03-18T20:43:49.390Z,241.63
2023-03-18T20:53:55.195Z,229.97
2023-03-18T21:04:02.335Z,230.93
2023-03-18T21:14:16.930Z,230.97
2023-03-18T21:24:29.192Z,250.07
2023-03-18T21:34:36.503Z,271.30
2023-03-18T21:44:40.935Z,276.70
2023-03-18T21:54:48.501Z,237.57
2023-03-18T22:04:53.503Z,246.47
2023-03-18T22:15:00.161Z,262.60
2023-03-18T22:25:04.229Z,268.80
2023-03-18T22:35:16.557Z,267.37
2023-03-18T22:45:25.588Z,253.03
2023-03-18T22:55:35.242Z,271.93
2023-03-18T23:05:38.925Z,273.70
2023-03-18T23:15:44.476Z,268.67
2023-03-18T23:25:48.395Z,259.70
2023-03-18T23:35:53.378Z,258.73
2023-03-18T23:45:56.925Z,246.40
2023-03-18T23:56:01.854Z,243.87
